sensor_id;sensor_type;location;lat;lon;timestamp;P1;durP1;ratioP1;P2;durP2;ratioP2
6679;SDS011;3376;42.664;23.346;2022-11-15T00:02:00;76.27;;;42.53;;
6679;SDS011;3376;42.664;23.346;2022-11-15T00:04:30;72.03;;;42.93;;
6679;SDS011;3376;42.664;23.346;2022-11-15T00:06:57;74.90;;;43.37;;
6679;SDS011;3376;42.664;23.346;2022-11-15T00:09:23;81.67;;;43.07;;
6679;SDS011;3376;42.664;23.346;2022-11-15T00:11:50;79.27;;;44.73;;
6679;SDS011;3376;42.664;23.346;2022-11-15T00:14:17;78.40;;;44.37;;
6679;SDS011;3376;42.664;23.346;2022-11-15T00:16:44;72.40;;;41.93;;
6679;SDS011;3376;42.664;23.346;2022-11-15T00:19:11;75.80;;;49.33;;
6679;SDS011;3376;42.664;23.346;2022-11-15T00:21:40;74.67;;;49.53;;
6679;SDS011;3376;42.664;23.346;2022-11-15T00:24:06;71.17;;;40.50;;
6679;SDS011;3376;42.664;23.346;2022-11-15T00:26:33;68.13;;;41.43;;
6679;SDS011;3376;42.664;23.346;2022-11-15T00:29:00;65.60;;;40.73;;
6679;SDS011;3376;42.664;23.346;2022-11-15T00:31:27;71.80;;;44.20;;
6679;SDS011;3376;42.664;23.346;2022-11-15T00:33:53;72.60;;;43.93;;
6679;SDS011;3376;42.664;23.346;2022-11-15T00:36:20;85.83;;;49.67;;
6679;SDS011;3376;42.664;23.346;2022-11-15T00:38:48;78.03;;;52.10;;
6679;SDS011;3376;42.664;23.346;2022-11-15T00:41:15;67.10;;;45.90;;
6679;SDS011;3376;42.664;23.346;2022-11-15T00:43:42;65.53;;;40.80;;
6679;SDS011;3376;42.664;23.346;2022-11-15T00:46:09;67.43;;;40.63;;
6679;SDS011;3376;42.664;23.346;2022-11-15T00:48:36;71.07;;;47.77;;
6679;SDS011;3376;42.664;23.346;2022-11-15T00:51:02;72.57;;;47.40;;
6679;SDS011;3376;42.664;23.346;2022-11-15T00:53:29;67.63;;;38.77;;
6679;SDS011;3376;42.664;23.346;2022-11-15T00:55:57;63.17;;;40.00;;
6679;SDS011;3376;42.664;23.346;2022-11-15T00:58:24;69.50;;;40.10;;
6679;SDS011;3376;42.664;23.346;2022-11-15T01:00:51;66.63;;;39.00;;
6679;SDS011;3376;42.664;23.346;2022-11-15T01:03:17;66.63;;;41.07;;
6679;SDS011;3376;42.664;23.346;2022-11-15T01:05:44;63.17;;;36.87;;
6679;SDS011;3376;42.664;23.346;2022-11-15T01:08:11;67.40;;;38.73;;
6679;SDS011;3376;42.664;23.346;2022-11-15T01:10:38;65.93;;;44.83;;
6679;SDS011;3376;42.664;23.346;2022-11-15T01:13:07;72.40;;;40.07;;
6679;SDS011;3376;42.664;23.346;2022-11-15T01:15:33;59.00;;;37.70;;
6679;SDS011;3376;42.664;23.346;2022-11-15T01:18:00;64.93;;;38.70;;
6679;SDS011;3376;42.664;23.346;2022-11-15T01:20:27;62.67;;;38.70;;
6679;SDS011;3376;42.664;23.346;2022-11-15T01:22:54;63.20;;;40.20;;
6679;SDS011;3376;42.664;23.346;2022-11-15T01:25:21;59.60;;;39.83;;
6679;SDS011;3376;42.664;23.346;2022-11-15T01:27:47;71.73;;;37.80;;
6679;SDS011;3376;42.664;23.346;2022-11-15T01:30:16;62.17;;;39.00;;
6679;SDS011;3376;42.664;23.346;2022-11-15T01:32:42;62.33;;;41.60;;
6679;SDS011;3376;42.664;23.346;2022-11-15T01:35:09;65.30;;;36.83;;
6679;SDS011;3376;42.664;23.346;2022-11-15T01:37:36;61.40;;;37.27;;
6679;SDS011;3376;42.664;23.346;2022-11-15T01:40:03;53.20;;;33.57;;
6679;SDS011;3376;42.664;23.346;2022-11-15T01:42:30;56.43;;;36.90;;
6679;SDS011;3376;42.664;23.346;2022-11-15T01:44:57;59.00;;;36.40;;
6679;SDS011;3376;42.664;23.346;2022-11-15T01:47:25;65.67;;;42.10;;
6679;SDS011;3376;42.664;23.346;2022-11-15T01:49:57;65.37;;;41.00;;
6679;SDS011;3376;42.664;23.346;2022-11-15T01:52:27;64.33;;;42.93;;
6679;SDS011;3376;42.664;23.346;2022-11-15T01:54:57;58.67;;;41.17;;
6679;SDS011;3376;42.664;23.346;2022-11-15T01:57:28;62.00;;;37.13;;
6679;SDS011;3376;42.664;23.346;2022-11-15T01:59:55;59.73;;;40.27;;
6679;SDS011;3376;42.664;23.346;2022-11-15T02:02:23;58.93;;;35.93;;
6679;SDS011;3376;42.664;23.346;2022-11-15T02:04:51;59.63;;;40.97;;
6679;SDS011;3376;42.664;23.346;2022-11-15T02:07:19;63.00;;;41.00;;
6679;SDS011;3376;42.664;23.346;2022-11-15T02:09:47;61.13;;;41.47;;
6679;SDS011;3376;42.664;23.346;2022-11-15T02:12:15;62.37;;;38.60;;
6679;SDS011;3376;42.664;23.346;2022-11-15T02:14:46;83.43;;;52.50;;
6679;SDS011;3376;42.664;23.346;2022-11-15T02:17:20;65.50;;;48.37;;
6679;SDS011;3376;42.664;23.346;2022-11-15T02:20:13;62.30;;;37.93;;
6679;SDS011;3376;42.664;23.346;2022-11-15T02:26:07;64.63;;;39.90;;
6679;SDS011;3376;42.664;23.346;2022-11-15T02:28:53;61.83;;;39.63;;
6679;SDS011;3376;42.664;23.346;2022-11-15T02:31:29;77.70;;;41.23;;
6679;SDS011;3376;42.664;23.346;2022-11-15T02:34:04;67.63;;;36.83;;
6679;SDS011;3376;42.664;23.346;2022-11-15T02:36:40;64.00;;;37.63;;
6679;SDS011;3376;42.664;23.346;2022-11-15T02:39:17;69.83;;;36.93;;
6679;SDS011;3376;42.664;23.346;2022-11-15T02:41:53;63.00;;;43.43;;
6679;SDS011;3376;42.664;23.346;2022-11-15T02:44:24;59.73;;;41.53;;
6679;SDS011;3376;42.664;23.346;2022-11-15T02:46:57;58.90;;;40.97;;
6679;SDS011;3376;42.664;23.346;2022-11-15T02:49:40;55.47;;;37.40;;
6679;SDS011;3376;42.664;23.346;2022-11-15T02:52:13;55.73;;;38.23;;
6679;SDS011;3376;42.664;23.346;2022-11-15T02:54:41;63.57;;;40.30;;
6679;SDS011;3376;42.664;23.346;2022-11-15T02:57:10;66.00;;;42.80;;
6679;SDS011;3376;42.664;23.346;2022-11-15T02:59:46;64.70;;;37.40;;
6679;SDS011;3376;42.664;23.346;2022-11-15T03:02:34;59.90;;;35.90;;
6679;SDS011;3376;42.664;23.346;2022-11-15T03:05:10;60.67;;;36.57;;
6679;SDS011;3376;42.664;23.346;2022-11-15T03:07:48;49.70;;;33.53;;
6679;SDS011;3376;42.664;23.346;2022-11-15T03:10:21;59.07;;;35.17;;
6679;SDS011;3376;42.664;23.346;2022-11-15T03:12:54;60.53;;;34.47;;
6679;SDS011;3376;42.664;23.346;2022-11-15T03:15:24;63.10;;;37.50;;
6679;SDS011;3376;42.664;23.346;2022-11-15T03:17:57;55.37;;;35.33;;
6679;SDS011;3376;42.664;23.346;2022-11-15T03:20:27;55.17;;;35.13;;
6679;SDS011;3376;42.664;23.346;2022-11-15T03:22:57;61.10;;;38.40;;
6679;SDS011;3376;42.664;23.346;2022-11-15T03:25:29;58.57;;;36.47;;
6679;SDS011;3376;42.664;23.346;2022-11-15T03:28:01;70.20;;;37.90;;
6679;SDS011;3376;42.664;23.346;2022-11-15T03:30:31;64.90;;;43.63;;
6679;SDS011;3376;42.664;23.346;2022-11-15T03:33:02;60.67;;;42.97;;
6679;SDS011;3376;42.664;23.346;2022-11-15T03:35:32;61.53;;;37.60;;
6679;SDS011;3376;42.664;23.346;2022-11-15T03:38:04;64.40;;;36.00;;
6679;SDS011;3376;42.664;23.346;2022-11-15T03:40:36;62.27;;;43.33;;
6679;SDS011;3376;42.664;23.346;2022-11-15T03:43:07;73.83;;;42.40;;
6679;SDS011;3376;42.664;23.346;2022-11-15T03:45:42;63.23;;;37.83;;
6679;SDS011;3376;42.664;23.346;2022-11-15T03:48:14;66.07;;;40.50;;
6679;SDS011;3376;42.664;23.346;2022-11-15T03:50:46;68.07;;;39.27;;
6679;SDS011;3376;42.664;23.346;2022-11-15T03:53:14;70.30;;;44.43;;
6679;SDS011;3376;42.664;23.346;2022-11-15T03:55:41;66.33;;;38.83;;
6679;SDS011;3376;42.664;23.346;2022-11-15T03:58:08;68.40;;;40.30;;
6679;SDS011;3376;42.664;23.346;2022-11-15T04:00:34;67.70;;;41.57;;
6679;SDS011;3376;42.664;23.346;2022-11-15T04:03:01;70.80;;;42.17;;
6679;SDS011;3376;42.664;23.346;2022-11-15T04:05:30;74.83;;;43.23;;
6679;SDS011;3376;42.664;23.346;2022-11-15T04:07:56;79.90;;;44.10;;
6679;SDS011;3376;42.664;23.346;2022-11-15T04:10:23;86.87;;;47.67;;
6679;SDS011;3376;42.664;23.346;2022-11-15T04:12:51;76.83;;;45.37;;
6679;SDS011;3376;42.664;23.346;2022-11-15T04:15:19;76.30;;;46.67;;
6679;SDS011;3376;42.664;23.346;2022-11-15T04:17:48;74.17;;;45.13;;
6679;SDS011;3376;42.664;23.346;2022-11-15T04:20:17;70.77;;;43.67;;
6679;SDS011;3376;42.664;23.346;2022-11-15T04:23:05;78.13;;;44.63;;
6679;SDS011;3376;42.664;23.346;2022-11-15T04:26:03;71.17;;;45.23;;
6679;SDS011;3376;42.664;23.346;2022-11-15T04:28:32;73.80;;;43.77;;
6679;SDS011;3376;42.664;23.346;2022-11-15T04:30:59;78.27;;;44.20;;
6679;SDS011;3376;42.664;23.346;2022-11-15T04:33:25;72.13;;;44.67;;
6679;SDS011;3376;42.664;23.346;2022-11-15T04:35:52;72.70;;;42.77;;
6679;SDS011;3376;42.664;23.346;2022-11-15T04:38:38;71.63;;;43.60;;
6679;SDS011;3376;42.664;23.346;2022-11-15T04:41:04;67.37;;;43.13;;
6679;SDS011;3376;42.664;23.346;2022-11-15T04:43:31;73.77;;;42.70;;
6679;SDS011;3376;42.664;23.346;2022-11-15T04:45:58;77.47;;;44.50;;
6679;SDS011;3376;42.664;23.346;2022-11-15T04:48:24;67.67;;;40.03;;
6679;SDS011;3376;42.664;23.346;2022-11-15T04:50:51;57.60;;;38.00;;
6679;SDS011;3376;42.664;23.346;2022-11-15T04:53:18;56.50;;;37.00;;
6679;SDS011;3376;42.664;23.346;2022-11-15T04:55:46;55.20;;;35.80;;
6679;SDS011;3376;42.664;23.346;2022-11-15T04:58:13;54.60;;;34.83;;
6679;SDS011;3376;42.664;23.346;2022-11-15T05:00:40;56.80;;;36.43;;
6679;SDS011;3376;42.664;23.346;2022-11-15T05:03:08;44.27;;;29.77;;
6679;SDS011;3376;42.664;23.346;2022-11-15T05:05:53;36.77;;;25.43;;
6679;SDS011;3376;42.664;23.346;2022-11-15T05:08:19;38.80;;;26.17;;
6679;SDS011;3376;42.664;23.346;2022-11-15T05:10:48;35.90;;;23.57;;
6679;SDS011;3376;42.664;23.346;2022-11-15T05:13:14;44.50;;;25.37;;
6679;SDS011;3376;42.664;23.346;2022-11-15T05:15:41;45.43;;;24.90;;
6679;SDS011;3376;42.664;23.346;2022-11-15T05:18:08;48.97;;;26.40;;
6679;SDS011;3376;42.664;23.346;2022-11-15T05:20:35;43.63;;;26.40;;
6679;SDS011;3376;42.664;23.346;2022-11-15T05:23:02;44.73;;;24.83;;
6679;SDS011;3376;42.664;23.346;2022-11-15T05:25:28;58.40;;;24.53;;
6679;SDS011;3376;42.664;23.346;2022-11-15T05:27:56;52.77;;;24.23;;
6679;SDS011;3376;42.664;23.346;2022-11-15T05:30:23;53.53;;;22.00;;
6679;SDS011;3376;42.664;23.346;2022-11-15T05:32:50;60.70;;;21.90;;
6679;SDS011;3376;42.664;23.346;2022-11-15T05:35:18;32.37;;;20.73;;
6679;SDS011;3376;42.664;23.346;2022-11-15T05:37:53;52.13;;;28.13;;
6679;SDS011;3376;42.664;23.346;2022-11-15T05:40:20;76.53;;;23.23;;
6679;SDS011;3376;42.664;23.346;2022-11-15T05:42:46;124.50;;;23.13;;
6679;SDS011;3376;42.664;23.346;2022-11-15T05:45:15;39.07;;;22.33;;
6679;SDS011;3376;42.664;23.346;2022-11-15T05:47:42;60.47;;;20.50;;
6679;SDS011;3376;42.664;23.346;2022-11-15T05:50:11;32.40;;;19.63;;
6679;SDS011;3376;42.664;23.346;2022-11-15T05:52:39;36.90;;;18.93;;
6679;SDS011;3376;42.664;23.346;2022-11-15T05:55:06;30.10;;;19.07;;
6679;SDS011;3376;42.664;23.346;2022-11-15T05:57:35;43.27;;;19.37;;
6679;SDS011;3376;42.664;23.346;2022-11-15T06:00:02;43.80;;;20.13;;
6679;SDS011;3376;42.664;23.346;2022-11-15T06:02:31;40.57;;;20.70;;
6679;SDS011;3376;42.664;23.346;2022-11-15T06:04:58;36.33;;;21.43;;
6679;SDS011;3376;42.664;23.346;2022-11-15T06:07:25;33.53;;;20.37;;
6679;SDS011;3376;42.664;23.346;2022-11-15T06:09:52;32.57;;;19.20;;
6679;SDS011;3376;42.664;23.346;2022-11-15T06:12:18;41.10;;;20.80;;
6679;SDS011;3376;42.664;23.346;2022-11-15T06:14:45;29.47;;;21.10;;
6679;SDS011;3376;42.664;23.346;2022-11-15T06:17:12;40.50;;;21.53;;
6679;SDS011;3376;42.664;23.346;2022-11-15T06:19:40;34.07;;;19.93;;
6679;SDS011;3376;42.664;23.346;2022-11-15T06:22:07;33.97;;;20.40;;
6679;SDS011;3376;42.664;23.346;2022-11-15T06:24:34;38.40;;;20.67;;
6679;SDS011;3376;42.664;23.346;2022-11-15T06:27:01;38.73;;;22.73;;
6679;SDS011;3376;42.664;23.346;2022-11-15T06:29:27;41.83;;;22.30;;
6679;SDS011;3376;42.664;23.346;2022-11-15T06:31:54;46.40;;;23.87;;
6679;SDS011;3376;42.664;23.346;2022-11-15T06:34:21;49.07;;;26.37;;
6679;SDS011;3376;42.664;23.346;2022-11-15T06:36:49;36.97;;;23.23;;
6679;SDS011;3376;42.664;23.346;2022-11-15T06:39:16;40.67;;;23.27;;
6679;SDS011;3376;42.664;23.346;2022-11-15T06:41:42;49.60;;;25.77;;
6679;SDS011;3376;42.664;23.346;2022-11-15T06:44:09;56.23;;;29.60;;
6679;SDS011;3376;42.664;23.346;2022-11-15T06:46:36;58.80;;;30.53;;
6679;SDS011;3376;42.664;23.346;2022-11-15T06:49:03;56.50;;;29.37;;
6679;SDS011;3376;42.664;23.346;2022-11-15T06:51:29;47.77;;;26.03;;
6679;SDS011;3376;42.664;23.346;2022-11-15T06:53:58;47.23;;;25.87;;
6679;SDS011;3376;42.664;23.346;2022-11-15T06:56:24;46.73;;;24.90;;
6679;SDS011;3376;42.664;23.346;2022-11-15T07:01:36;44.47;;;25.97;;
6679;SDS011;3376;42.664;23.346;2022-11-15T07:04:03;39.63;;;23.73;;
6679;SDS011;3376;42.664;23.346;2022-11-15T07:06:30;32.50;;;22.33;;
6679;SDS011;3376;42.664;23.346;2022-11-15T07:08:58;36.13;;;22.53;;
6679;SDS011;3376;42.664;23.346;2022-11-15T07:11:25;38.20;;;24.20;;
6679;SDS011;3376;42.664;23.346;2022-11-15T07:13:52;37.73;;;23.33;;
6679;SDS011;3376;42.664;23.346;2022-11-15T07:16:18;39.23;;;23.63;;
6679;SDS011;3376;42.664;23.346;2022-11-15T07:18:45;38.27;;;23.50;;
6679;SDS011;3376;42.664;23.346;2022-11-15T07:21:12;40.30;;;22.77;;
6679;SDS011;3376;42.664;23.346;2022-11-15T07:23:39;37.93;;;24.10;;
6679;SDS011;3376;42.664;23.346;2022-11-15T07:26:07;40.67;;;25.47;;
6679;SDS011;3376;42.664;23.346;2022-11-15T07:28:35;41.57;;;24.77;;
6679;SDS011;3376;42.664;23.346;2022-11-15T07:31:02;39.00;;;25.63;;
6679;SDS011;3376;42.664;23.346;2022-11-15T07:33:29;48.93;;;27.70;;
6679;SDS011;3376;42.664;23.346;2022-11-15T07:35:58;44.03;;;25.63;;
6679;SDS011;3376;42.664;23.346;2022-11-15T07:38:26;47.13;;;27.87;;
6679;SDS011;3376;42.664;23.346;2022-11-15T07:40:55;44.47;;;26.90;;
6679;SDS011;3376;42.664;23.346;2022-11-15T07:43:24;46.53;;;26.20;;
6679;SDS011;3376;42.664;23.346;2022-11-15T07:45:52;47.93;;;26.90;;
6679;SDS011;3376;42.664;23.346;2022-11-15T07:48:20;47.17;;;26.73;;
6679;SDS011;3376;42.664;23.346;2022-11-15T07:50:46;41.40;;;26.73;;
6679;SDS011;3376;42.664;23.346;2022-11-15T07:53:14;38.60;;;26.27;;
6679;SDS011;3376;42.664;23.346;2022-11-15T07:55:41;50.47;;;29.87;;
6679;SDS011;3376;42.664;23.346;2022-11-15T07:58:08;47.87;;;28.67;;
6679;SDS011;3376;42.664;23.346;2022-11-15T08:00:38;46.17;;;28.00;;
6679;SDS011;3376;42.664;23.346;2022-11-15T08:03:05;60.20;;;31.57;;
6679;SDS011;3376;42.664;23.346;2022-11-15T08:05:33;58.70;;;33.63;;
6679;SDS011;3376;42.664;23.346;2022-11-15T08:08:01;58.80;;;33.93;;
6679;SDS011;3376;42.664;23.346;2022-11-15T08:10:29;66.07;;;34.20;;
6679;SDS011;3376;42.664;23.346;2022-11-15T08:12:59;61.37;;;35.07;;
6679;SDS011;3376;42.664;23.346;2022-11-15T08:15:27;62.80;;;33.37;;
6679;SDS011;3376;42.664;23.346;2022-11-15T08:17:56;64.80;;;34.53;;
6679;SDS011;3376;42.664;23.346;2022-11-15T08:20:24;58.37;;;32.93;;
6679;SDS011;3376;42.664;23.346;2022-11-15T08:22:54;63.33;;;33.33;;
6679;SDS011;3376;42.664;23.346;2022-11-15T08:25:21;68.83;;;34.17;;
6679;SDS011;3376;42.664;23.346;2022-11-15T08:27:50;64.53;;;36.20;;
6679;SDS011;3376;42.664;23.346;2022-11-15T08:30:17;61.63;;;34.77;;
6679;SDS011;3376;42.664;23.346;2022-11-15T08:32:44;65.23;;;35.27;;
6679;SDS011;3376;42.664;23.346;2022-11-15T08:35:12;63.03;;;35.90;;
6679;SDS011;3376;42.664;23.346;2022-11-15T08:37:39;61.60;;;36.60;;
6679;SDS011;3376;42.664;23.346;2022-11-15T08:40:06;72.17;;;37.40;;
6679;SDS011;3376;42.664;23.346;2022-11-15T08:42:34;64.10;;;35.63;;
6679;SDS011;3376;42.664;23.346;2022-11-15T08:45:01;66.57;;;36.33;;
6679;SDS011;3376;42.664;23.346;2022-11-15T08:47:28;65.97;;;38.57;;
6679;SDS011;3376;42.664;23.346;2022-11-15T08:49:55;80.20;;;41.83;;
6679;SDS011;3376;42.664;23.346;2022-11-15T08:52:23;76.43;;;41.03;;
6679;SDS011;3376;42.664;23.346;2022-11-15T08:54:50;80.57;;;41.23;;
6679;SDS011;3376;42.664;23.346;2022-11-15T08:57:17;70.20;;;40.20;;
6679;SDS011;3376;42.664;23.346;2022-11-15T08:59:44;66.50;;;36.83;;
6679;SDS011;3376;42.664;23.346;2022-11-15T09:02:11;78.80;;;42.37;;
6679;SDS011;3376;42.664;23.346;2022-11-15T09:04:40;77.30;;;43.53;;
6679;SDS011;3376;42.664;23.346;2022-11-15T09:07:07;75.97;;;39.77;;
6679;SDS011;3376;42.664;23.346;2022-11-15T09:09:35;71.30;;;42.27;;
6679;SDS011;3376;42.664;23.346;2022-11-15T09:12:03;71.03;;;39.13;;
6679;SDS011;3376;42.664;23.346;2022-11-15T09:14:31;71.57;;;39.47;;
6679;SDS011;3376;42.664;23.346;2022-11-15T09:16:58;68.93;;;38.77;;
6679;SDS011;3376;42.664;23.346;2022-11-15T09:19:25;81.87;;;40.23;;
6679;SDS011;3376;42.664;23.346;2022-11-15T09:21:52;74.43;;;41.53;;
6679;SDS011;3376;42.664;23.346;2022-11-15T09:24:19;84.40;;;41.87;;
6679;SDS011;3376;42.664;23.346;2022-11-15T09:26:47;88.70;;;43.27;;
6679;SDS011;3376;42.664;23.346;2022-11-15T09:29:16;90.03;;;44.13;;
6679;SDS011;3376;42.664;23.346;2022-11-15T09:31:42;81.23;;;42.63;;
6679;SDS011;3376;42.664;23.346;2022-11-15T09:34:09;67.67;;;38.97;;
6679;SDS011;3376;42.664;23.346;2022-11-15T09:36:36;68.30;;;39.63;;
6679;SDS011;3376;42.664;23.346;2022-11-15T09:39:03;73.97;;;40.60;;
6679;SDS011;3376;42.664;23.346;2022-11-15T09:41:36;71.17;;;40.63;;
6679;SDS011;3376;42.664;23.346;2022-11-15T09:44:29;74.43;;;41.83;;
6679;SDS011;3376;42.664;23.346;2022-11-15T09:47:07;83.27;;;42.57;;
6679;SDS011;3376;42.664;23.346;2022-11-15T09:49:50;78.30;;;44.10;;
6679;SDS011;3376;42.664;23.346;2022-11-15T09:52:18;67.80;;;42.10;;
6679;SDS011;3376;42.664;23.346;2022-11-15T09:54:46;75.33;;;44.33;;
6679;SDS011;3376;42.664;23.346;2022-11-15T09:57:16;71.80;;;45.13;;
6679;SDS011;3376;42.664;23.346;2022-11-15T09:59:52;70.80;;;42.43;;
6679;SDS011;3376;42.664;23.346;2022-11-15T10:02:40;69.60;;;42.83;;
6679;SDS011;3376;42.664;23.346;2022-11-15T10:05:18;72.60;;;42.97;;
6679;SDS011;3376;42.664;23.346;2022-11-15T10:07:48;68.17;;;42.70;;
6679;SDS011;3376;42.664;23.346;2022-11-15T10:10:23;69.67;;;44.87;;
6679;SDS011;3376;42.664;23.346;2022-11-15T10:12:53;70.23;;;45.43;;
6679;SDS011;3376;42.664;23.346;2022-11-15T10:15:23;65.27;;;43.60;;
6679;SDS011;3376;42.664;23.346;2022-11-15T10:20:42;69.97;;;45.07;;
6679;SDS011;3376;42.664;23.346;2022-11-15T10:23:14;65.77;;;45.13;;
6679;SDS011;3376;42.664;23.346;2022-11-15T10:25:43;67.63;;;44.90;;
6679;SDS011;3376;42.664;23.346;2022-11-15T10:28:11;66.37;;;46.70;;
6679;SDS011;3376;42.664;23.346;2022-11-15T10:30:43;69.80;;;46.50;;
6679;SDS011;3376;42.664;23.346;2022-11-15T10:33:20;56.57;;;43.47;;
6679;SDS011;3376;42.664;23.346;2022-11-15T10:38:57;73.60;;;47.43;;
6679;SDS011;3376;42.664;23.346;2022-11-15T10:41:32;60.33;;;45.50;;
6679;SDS011;3376;42.664;23.346;2022-11-15T10:44:07;58.33;;;44.07;;
6679;SDS011;3376;42.664;23.346;2022-11-15T10:46:40;62.20;;;44.93;;
6679;SDS011;3376;42.664;23.346;2022-11-15T10:49:13;59.53;;;44.20;;
6679;SDS011;3376;42.664;23.346;2022-11-15T10:51:42;56.63;;;43.17;;
6679;SDS011;3376;42.664;23.346;2022-11-15T10:54:11;62.43;;;44.33;;
6679;SDS011;3376;42.664;23.346;2022-11-15T10:56:40;58.20;;;44.13;;
6679;SDS011;3376;42.664;23.346;2022-11-15T10:59:14;67.17;;;44.00;;
6679;SDS011;3376;42.664;23.346;2022-11-15T11:01:47;59.03;;;43.23;;
6679;SDS011;3376;42.664;23.346;2022-11-15T11:04:14;62.83;;;46.57;;
6679;SDS011;3376;42.664;23.346;2022-11-15T11:06:48;71.60;;;49.17;;
6679;SDS011;3376;42.664;23.346;2022-11-15T11:09:23;57.50;;;45.20;;
6679;SDS011;3376;42.664;23.346;2022-11-15T11:11:55;60.53;;;46.00;;
6679;SDS011;3376;42.664;23.346;2022-11-15T11:14:23;62.60;;;46.77;;
6679;SDS011;3376;42.664;23.346;2022-11-15T11:16:54;74.33;;;48.50;;
6679;SDS011;3376;42.664;23.346;2022-11-15T11:19:35;66.60;;;47.47;;
6679;SDS011;3376;42.664;23.346;2022-11-15T11:22:16;67.67;;;48.33;;
6679;SDS011;3376;42.664;23.346;2022-11-15T11:24:48;65.90;;;46.97;;
6679;SDS011;3376;42.664;23.346;2022-11-15T11:27:25;72.77;;;48.40;;
6679;SDS011;3376;42.664;23.346;2022-11-15T11:30:04;70.50;;;47.27;;
6679;SDS011;3376;42.664;23.346;2022-11-15T11:35:29;65.23;;;46.50;;
6679;SDS011;3376;42.664;23.346;2022-11-15T11:38:05;75.47;;;48.27;;
6679;SDS011;3376;42.664;23.346;2022-11-15T11:40:44;69.57;;;46.80;;
6679;SDS011;3376;42.664;23.346;2022-11-15T11:43:34;68.53;;;47.33;;
6679;SDS011;3376;42.664;23.346;2022-11-15T11:46:13;73.57;;;48.47;;
6679;SDS011;3376;42.664;23.346;2022-11-15T11:48:56;70.27;;;45.97;;
6679;SDS011;3376;42.664;23.346;2022-11-15T11:51:34;77.33;;;48.20;;
6679;SDS011;3376;42.664;23.346;2022-11-15T11:54:09;67.37;;;46.60;;
6679;SDS011;3376;42.664;23.346;2022-11-15T11:56:41;67.43;;;47.33;;
6679;SDS011;3376;42.664;23.346;2022-11-15T11:59:14;65.20;;;47.37;;
6679;SDS011;3376;42.664;23.346;2022-11-15T12:01:46;74.03;;;45.77;;
6679;SDS011;3376;42.664;23.346;2022-11-15T12:04:16;75.23;;;46.57;;
6679;SDS011;3376;42.664;23.346;2022-11-15T12:06:48;69.90;;;45.07;;
6679;SDS011;3376;42.664;23.346;2022-11-15T12:09:20;70.57;;;47.50;;
6679;SDS011;3376;42.664;23.346;2022-11-15T12:11:51;66.87;;;48.40;;
6679;SDS011;3376;42.664;23.346;2022-11-15T12:14:25;70.70;;;47.87;;
6679;SDS011;3376;42.664;23.346;2022-11-15T12:16:57;66.83;;;46.37;;
6679;SDS011;3376;42.664;23.346;2022-11-15T12:19:26;67.77;;;44.43;;
6679;SDS011;3376;42.664;23.346;2022-11-15T12:21:56;71.90;;;44.70;;
6679;SDS011;3376;42.664;23.346;2022-11-15T12:24:29;63.07;;;42.37;;
6679;SDS011;3376;42.664;23.346;2022-11-15T12:27:01;65.37;;;45.17;;
6679;SDS011;3376;42.664;23.346;2022-11-15T12:29:33;60.50;;;42.30;;
6679;SDS011;3376;42.664;23.346;2022-11-15T12:32:04;59.53;;;43.60;;
6679;SDS011;3376;42.664;23.346;2022-11-15T12:34:41;59.23;;;42.07;;
6679;SDS011;3376;42.664;23.346;2022-11-15T12:40:04;57.20;;;40.90;;
6679;SDS011;3376;42.664;23.346;2022-11-15T12:42:56;59.00;;;41.77;;
6679;SDS011;3376;42.664;23.346;2022-11-15T12:45:28;58.00;;;41.00;;
6679;SDS011;3376;42.664;23.346;2022-11-15T12:48:20;54.27;;;41.50;;
6679;SDS011;3376;42.664;23.346;2022-11-15T12:51:13;60.43;;;43.80;;
6679;SDS011;3376;42.664;23.346;2022-11-15T12:53:40;57.17;;;43.73;;
6679;SDS011;3376;42.664;23.346;2022-11-15T12:56:23;55.63;;;41.00;;
6679;SDS011;3376;42.664;23.346;2022-11-15T12:58:53;61.17;;;42.80;;
6679;SDS011;3376;42.664;23.346;2022-11-15T13:04:24;52.50;;;39.80;;
6679;SDS011;3376;42.664;23.346;2022-11-15T13:06:57;55.03;;;39.83;;
6679;SDS011;3376;42.664;23.346;2022-11-15T13:15:38;53.43;;;39.77;;
6679;SDS011;3376;42.664;23.346;2022-11-15T13:18:28;60.17;;;40.93;;
6679;SDS011;3376;42.664;23.346;2022-11-15T13:21:00;51.77;;;39.37;;
6679;SDS011;3376;42.664;23.346;2022-11-15T13:23:52;62.27;;;41.73;;
6679;SDS011;3376;42.664;23.346;2022-11-15T13:26:20;55.70;;;39.93;;
6679;SDS011;3376;42.664;23.346;2022-11-15T13:28:48;55.33;;;40.40;;
6679;SDS011;3376;42.664;23.346;2022-11-15T13:31:27;54.87;;;41.10;;
6679;SDS011;3376;42.664;23.346;2022-11-15T13:34:02;53.83;;;39.53;;
6679;SDS011;3376;42.664;23.346;2022-11-15T13:36:40;58.90;;;41.83;;
6679;SDS011;3376;42.664;23.346;2022-11-15T13:39:14;53.93;;;40.83;;
6679;SDS011;3376;42.664;23.346;2022-11-15T13:41:51;57.90;;;42.23;;
6679;SDS011;3376;42.664;23.346;2022-11-15T13:44:19;62.93;;;42.87;;
6679;SDS011;3376;42.664;23.346;2022-11-15T13:46:48;59.23;;;41.50;;
6679;SDS011;3376;42.664;23.346;2022-11-15T13:49:15;53.70;;;39.80;;
6679;SDS011;3376;42.664;23.346;2022-11-15T13:51:43;55.67;;;40.77;;
6679;SDS011;3376;42.664;23.346;2022-11-15T13:54:16;56.43;;;41.40;;
6679;SDS011;3376;42.664;23.346;2022-11-15T13:56:47;56.73;;;41.67;;
6679;SDS011;3376;42.664;23.346;2022-11-15T13:59:19;61.53;;;41.43;;
6679;SDS011;3376;42.664;23.346;2022-11-15T14:01:51;59.40;;;42.67;;
6679;SDS011;3376;42.664;23.346;2022-11-15T14:04:19;55.07;;;40.03;;
6679;SDS011;3376;42.664;23.346;2022-11-15T14:06:49;58.07;;;42.00;;
6679;SDS011;3376;42.664;23.346;2022-11-15T14:09:33;57.50;;;42.63;;
6679;SDS011;3376;42.664;23.346;2022-11-15T14:12:19;61.03;;;41.70;;
6679;SDS011;3376;42.664;23.346;2022-11-15T14:14:50;68.97;;;43.87;;
6679;SDS011;3376;42.664;23.346;2022-11-15T14:17:19;66.93;;;42.73;;
6679;SDS011;3376;42.664;23.346;2022-11-15T14:19:48;66.87;;;44.33;;
6679;SDS011;3376;42.664;23.346;2022-11-15T14:22:17;65.53;;;44.80;;
6679;SDS011;3376;42.664;23.346;2022-11-15T14:25:05;71.20;;;45.50;;
6679;SDS011;3376;42.664;23.346;2022-11-15T14:27:40;68.37;;;46.33;;
6679;SDS011;3376;42.664;23.346;2022-11-15T14:30:12;73.97;;;48.57;;
6679;SDS011;3376;42.664;23.346;2022-11-15T14:32:43;79.80;;;51.83;;
6679;SDS011;3376;42.664;23.346;2022-11-15T14:35:13;73.23;;;49.10;;
6679;SDS011;3376;42.664;23.346;2022-11-15T14:37:42;76.27;;;48.10;;
6679;SDS011;3376;42.664;23.346;2022-11-15T14:40:13;78.47;;;48.03;;
6679;SDS011;3376;42.664;23.346;2022-11-15T14:42:42;75.57;;;48.97;;
6679;SDS011;3376;42.664;23.346;2022-11-15T14:45:11;82.30;;;46.93;;
6679;SDS011;3376;42.664;23.346;2022-11-15T14:47:40;80.83;;;47.83;;
6679;SDS011;3376;42.664;23.346;2022-11-15T14:50:10;83.03;;;47.87;;
6679;SDS011;3376;42.664;23.346;2022-11-15T14:52:37;79.17;;;49.03;;
6679;SDS011;3376;42.664;23.346;2022-11-15T14:55:10;76.70;;;46.00;;
6679;SDS011;3376;42.664;23.346;2022-11-15T14:57:44;72.70;;;45.00;;
6679;SDS011;3376;42.664;23.346;2022-11-15T15:00:11;71.93;;;43.13;;
6679;SDS011;3376;42.664;23.346;2022-11-15T15:02:39;80.50;;;44.57;;
6679;SDS011;3376;42.664;23.346;2022-11-15T15:05:14;78.43;;;47.30;;
6679;SDS011;3376;42.664;23.346;2022-11-15T15:07:42;85.57;;;47.00;;
6679;SDS011;3376;42.664;23.346;2022-11-15T15:10:09;81.13;;;47.30;;
6679;SDS011;3376;42.664;23.346;2022-11-15T15:12:38;76.13;;;46.93;;
6679;SDS011;3376;42.664;23.346;2022-11-15T15:15:05;78.13;;;48.27;;
6679;SDS011;3376;42.664;23.346;2022-11-15T15:17:38;86.17;;;47.50;;
6679;SDS011;3376;42.664;23.346;2022-11-15T15:20:05;85.20;;;46.97;;